Time;durP1;ratioP1;P1;durP2;ratioP2;P2;SDS_P1;SDS_P2;PMS_P1;PMS_P2;Temp;Humidity;BMP_temperature;BMP_pressure;BME280_temperature;BME280_humidity;BME280_pressure;Samples;Min_cycle;Max_cycle;Signal;HPM_P1;HPM_P2
2022/04/13 00:01:14;;;;;;;8.73;3.92;;;9.90;99.90;;;;;;4990577;28;20030;-62
2022/04/13 00:03:41;;;;;;;10.20;3.70;;;9.90;99.90;;;;;;4991217;28;20031;-61
2022/04/13 00:06:07;;;;;;;7.20;3.65;;;9.80;99.90;;;;;;4991322;28;20113;-61
2022/04/13 00:08:33;;;;;;;8.88;3.70;;;9.80;99.90;;;;;;4975965;28;20902;-61
2022/04/13 00:11:00;;;;;;;7.72;3.65;;;9.60;99.90;;;;;;4972576;28;20476;-61
2022/04/13 00:13:26;;;;;;;9.00;3.47;;;9.50;99.90;;;;;;4985742;28;20041;-61
2022/04/13 00:15:51;;;;;;;8.00;3.50;;;9.50;99.90;;;;;;4991293;28;20129;-61
2022/04/13 00:18:17;;;;;;;6.55;3.47;;;9.50;99.90;;;;;;4990332;28;20041;-61
2022/04/13 00:20:42;;;;;;;8.90;3.60;;;9.50;99.90;;;;;;4988636;28;20038;-61
2022/04/13 00:23:08;;;;;;;7.22;3.58;;;9.50;99.90;;;;;;4991043;28;20038;-61
2022/04/13 00:25:36;;;;;;;6.50;3.45;;;9.60;99.90;;;;;;4990185;28;20530;-61
2022/04/13 00:28:01;;;;;;;8.48;3.90;;;9.60;99.90;;;;;;4984194;28;20042;-61
2022/04/13 00:30:27;;;;;;;6.00;3.30;;;9.50;99.90;;;;;;4979549;28;20049;-61
2022/04/13 00:32:53;;;;;;;12.10;4.13;;;9.50;99.90;;;;;;4989469;28;20046;-60
2022/04/13 00:35:18;;;;;;;6.55;3.38;;;9.60;99.90;;;;;;4989463;28;20031;-61
2022/04/13 00:37:44;;;;;;;9.27;4.15;;;9.50;99.90;;;;;;4988449;28;20037;-61
2022/04/13 00:40:10;;;;;;;6.57;3.65;;;9.50;99.90;;;;;;4990911;28;20038;-60
2022/04/13 00:42:36;;;;;;;7.55;3.80;;;9.40;99.90;;;;;;4989479;28;20114;-61
2022/04/13 00:45:02;;;;;;;11.10;4.47;;;9.40;99.90;;;;;;4990399;28;20133;-60
2022/04/13 00:47:28;;;;;;;9.50;3.47;;;9.20;99.90;;;;;;4989762;28;20450;-61
2022/04/13 00:49:54;;;;;;;6.97;4.00;;;9.30;99.90;;;;;;4990444;28;20490;-61
2022/04/13 00:52:23;;;;;;;9.98;4.47;;;9.50;99.90;;;;;;4989127;28;20034;-61
2022/04/13 00:54:50;;;;;;;11.07;4.80;;;9.40;99.90;;;;;;4989066;28;20434;-60
2022/04/13 00:57:19;;;;;;;11.40;4.28;;;9.30;99.90;;;;;;4989893;28;20038;-61
2022/04/13 00:59:48;;;;;;;7.25;3.85;;;9.20;99.90;;;;;;4990369;28;20027;-61
2022/04/13 01:02:16;;;;;;;13.00;4.90;;;9.20;99.90;;;;;;4989726;28;20116;-61
2022/04/13 01:04:44;;;;;;;9.35;4.35;;;9.40;99.90;;;;;;4989903;28;20928;-60
2022/04/13 01:07:10;;;;;;;7.97;4.20;;;9.30;99.90;;;;;;4982468;28;20044;-61
2022/04/13 01:09:37;;;;;;;9.75;4.13;;;9.30;99.90;;;;;;4989271;28;20322;-61
2022/04/13 01:12:03;;;;;;;7.72;4.10;;;9.20;99.90;;;;;;4986201;28;20113;-61
2022/04/13 01:14:30;;;;;;;8.98;4.32;;;9.20;99.90;;;;;;4989188;28;20500;-61
2022/04/13 01:16:56;;;;;;;8.38;4.15;;;9.20;99.90;;;;;;4987960;28;20023;-60
2022/04/13 01:19:22;;;;;;;8.68;4.30;;;9.10;99.90;;;;;;4989233;28;20089;-61
2022/04/13 01:21:53;;;;;;;8.65;4.25;;;9.00;99.90;;;;;;4989813;28;20049;-61
2022/04/13 01:24:20;;;;;;;9.65;4.63;;;9.00;99.90;;;;;;4981947;28;20029;-61
2022/04/13 01:26:46;;;;;;;8.95;4.22;;;9.10;99.90;;;;;;4986697;28;20535;-60
2022/04/13 01:29:12;;;;;;;8.93;4.20;;;9.10;99.90;;;;;;4980831;28;20122;-61
2022/04/13 01:31:39;;;;;;;10.88;4.45;;;9.20;99.90;;;;;;4987507;28;20585;-61
2022/04/13 01:34:06;;;;;;;10.98;4.38;;;9.10;99.90;;;;;;4987974;28;20030;-60
2022/04/13 01:36:33;;;;;;;9.13;4.35;;;9.20;99.90;;;;;;4989055;28;20030;-61
2022/04/13 01:38:59;;;;;;;7.72;4.40;;;9.20;99.90;;;;;;4987807;28;20398;-61
2022/04/13 01:41:25;;;;;;;9.65;4.50;;;9.10;99.90;;;;;;4988966;28;20105;-61
2022/04/13 01:43:50;;;;;;;7.85;4.15;;;9.00;99.90;;;;;;4985971;28;20399;-61
2022/04/13 01:46:16;;;;;;;8.10;4.03;;;8.90;99.90;;;;;;4989310;28;20036;-60
2022/04/13 01:48:42;;;;;;;9.75;4.03;;;8.80;99.90;;;;;;4989140;28;20041;-60
2022/04/13 01:51:07;;;;;;;10.65;4.28;;;8.70;99.90;;;;;;4989080;28;20130;-61
2022/04/13 01:53:35;;;;;;;7.82;4.35;;;8.80;99.90;;;;;;4988537;28;20030;-61
2022/04/13 01:56:01;;;;;;;9.25;4.68;;;8.90;99.90;;;;;;4988406;28;20116;-61
2022/04/13 01:58:26;;;;;;;7.85;4.28;;;8.90;99.90;;;;;;4984884;28;20743;-61
2022/04/13 02:00:56;;;;;;;6.97;4.18;;;8.90;99.90;;;;;;4989642;28;20039;-61
2022/04/13 02:03:26;;;;;;;9.93;4.50;;;8.80;99.90;;;;;;4985882;28;20034;-61
2022/04/13 02:05:53;;;;;;;8.98;5.05;;;8.80;99.90;;;;;;4978437;28;20053;-61
2022/04/13 02:08:20;;;;;;;9.88;5.00;;;8.80;99.90;;;;;;4988340;28;20081;-61
2022/04/13 02:10:46;;;;;;;9.18;4.45;;;8.90;99.90;;;;;;4989583;28;20031;-61
2022/04/13 02:13:11;;;;;;;9.07;4.65;;;9.00;99.90;;;;;;4987224;28;20538;-60
2022/04/13 02:15:38;;;;;;;7.68;4.13;;;9.00;99.90;;;;;;4987105;28;20045;-61
2022/04/13 02:18:05;;;;;;;7.82;4.50;;;9.00;99.90;;;;;;4988919;28;20061;-61
2022/04/13 02:20:31;;;;;;;10.50;4.60;;;9.00;99.90;;;;;;4985821;28;20045;-61
2022/04/13 02:22:57;;;;;;;11.02;4.03;;;9.10;99.90;;;;;;4988072;28;20113;-60
2022/04/13 02:25:22;;;;;;;6.75;3.72;;;9.10;99.90;;;;;;4987824;28;20168;-61
2022/04/13 02:27:48;;;;;;;9.20;4.38;;;9.20;99.90;;;;;;4985495;28;20080;-60
2022/04/13 02:30:15;;;;;;;7.10;4.00;;;9.20;99.90;;;;;;4988806;28;20494;-61
2022/04/13 02:32:45;;;;;;;11.00;3.90;;;9.10;99.90;;;;;;4983290;28;20539;-61
2022/04/13 02:35:12;;;;;;;9.25;4.35;;;8.90;99.90;;;;;;4983767;28;20037;-61
2022/04/13 02:37:43;;;;;;;9.43;4.38;;;9.00;99.90;;;;;;4975063;28;20103;-61
2022/04/13 02:40:10;;;;;;;9.60;4.25;;;9.00;99.90;;;;;;4987953;28;20084;-61
2022/04/13 02:42:36;;;;;;;8.85;4.35;;;8.90;99.90;;;;;;4980172;28;20026;-61
2022/04/13 02:45:03;;;;;;;8.65;4.45;;;8.80;99.90;;;;;;4984005;28;20112;-61
2022/04/13 02:47:31;;;;;;;8.30;4.75;;;8.70;99.90;;;;;;4987962;28;20027;-61
2022/04/13 02:49:57;;;;;;;9.57;4.68;;;8.80;99.90;;;;;;4985439;28;20069;-61
2022/04/13 02:52:25;;;;;;;8.75;4.57;;;8.80;99.90;;;;;;4988314;28;20487;-61
2022/04/13 02:54:51;;;;;;;7.53;4.32;;;8.80;99.90;;;;;;4985087;28;20499;-61
2022/04/13 02:57:17;;;;;;;7.25;4.05;;;8.80;99.90;;;;;;4985818;28;20045;-60
2022/04/13 02:59:46;;;;;;;10.90;4.82;;;8.90;99.90;;;;;;4987518;28;20389;-60
2022/04/13 03:02:14;;;;;;;8.32;4.45;;;8.90;99.90;;;;;;4988697;28;20034;-60
2022/04/13 03:04:42;;;;;;;17.45;4.82;;;8.80;99.90;;;;;;4986346;28;20034;-60
2022/04/13 03:07:12;;;;;;;14.57;5.18;;;8.80;99.90;;;;;;4986815;28;20041;-60
2022/04/13 03:09:38;;;;;;;10.90;4.47;;;8.80;99.90;;;;;;4987387;28;20053;-60
2022/04/13 03:12:06;;;;;;;13.13;4.80;;;8.70;99.90;;;;;;4988382;28;20038;-60
2022/04/13 03:14:32;;;;;;;8.13;4.00;;;8.70;99.90;;;;;;4986416;28;20060;-60
2022/04/13 03:16:57;;;;;;;8.43;4.43;;;8.80;99.90;;;;;;4986789;28;20039;-60
2022/04/13 03:19:23;;;;;;;9.82;4.15;;;8.90;99.90;;;;;;4990734;28;20042;-60
2022/04/13 03:21:51;;;;;;;9.82;3.92;;;8.90;99.90;;;;;;4992193;28;20403;-60
2022/04/13 03:24:17;;;;;;;8.10;4.10;;;9.00;99.90;;;;;;4992340;28;20084;-60
2022/04/13 03:26:43;;;;;;;8.80;4.32;;;9.00;99.90;;;;;;4990749;28;20026;-60
2022/04/13 03:29:09;;;;;;;7.95;4.28;;;9.00;99.90;;;;;;4992024;28;20038;-60
2022/04/13 03:31:35;;;;;;;9.50;4.75;;;9.00;99.90;;;;;;4991375;28;20053;-60
2022/04/13 03:34:01;;;;;;;8.13;4.35;;;9.00;99.90;;;;;;4991802;28;20030;-60
2022/04/13 03:36:27;;;;;;;9.63;4.30;;;8.90;99.90;;;;;;4989567;28;20052;-60
2022/04/13 03:38:52;;;;;;;8.80;3.85;;;8.80;99.90;;;;;;4991515;28;20039;-60
2022/04/13 03:41:18;;;;;;;9.77;4.60;;;8.70;99.90;;;;;;4992062;28;20041;-60
2022/04/13 03:43:44;;;;;;;10.60;4.10;;;8.70;99.90;;;;;;4991220;28;20100;-60
2022/04/13 03:46:09;;;;;;;9.02;3.90;;;8.70;99.90;;;;;;4991583;28;20543;-60
2022/04/13 03:48:35;;;;;;;9.52;4.60;;;8.70;99.90;;;;;;4985746;28;20513;-60
2022/04/13 03:51:01;;;;;;;7.90;4.18;;;8.70;99.90;;;;;;4991310;28;20084;-60
2022/04/13 03:53:26;;;;;;;8.75;4.13;;;8.70;99.90;;;;;;4991455;28;20070;-60
2022/04/13 03:55:52;;;;;;;8.23;4.25;;;8.70;99.90;;;;;;4991380;28;20034;-60
2022/04/13 03:58:18;;;;;;;6.65;3.85;;;8.60;99.90;;;;;;4990742;28;20499;-60
2022/04/13 04:00:44;;;;;;;8.18;4.07;;;8.50;99.90;;;;;;4991055;28;20146;-60
2022/04/13 04:03:10;;;;;;;9.15;4.07;;;8.50;99.90;;;;;;4991165;28;20080;-60
2022/04/13 04:05:36;;;;;;;7.38;4.03;;;8.50;99.90;;;;;;4990514;28;20046;-60
2022/04/13 04:08:01;;;;;;;7.20;3.90;;;8.40;99.90;;;;;;4991156;28;20034;-60
2022/04/13 04:10:27;;;;;;;7.47;3.85;;;8.40;99.90;;;;;;4989323;28;20041;-60
2022/04/13 04:12:52;;;;;;;8.63;4.20;;;8.40;99.90;;;;;;4988655;28;20038;-60
2022/04/13 04:15:18;;;;;;;8.48;4.45;;;8.30;99.90;;;;;;4989847;28;20042;-60
2022/04/13 04:17:44;;;;;;;9.13;4.45;;;8.20;99.90;;;;;;4990560;28;20041;-60
2022/04/13 04:20:10;;;;;;;8.07;4.35;;;8.20;99.90;;;;;;4991626;28;20243;-60
2022/04/13 04:22:36;;;;;;;8.45;3.97;;;8.20;99.90;;;;;;4989878;28;20030;-60
2022/04/13 04:25:03;;;;;;;10.68;4.30;;;8.20;99.90;;;;;;4989651;28;20034;-60
2022/04/13 04:27:29;;;;;;;7.57;3.72;;;8.10;99.90;;;;;;4986163;28;20041;-60
2022/04/13 04:29:54;;;;;;;10.45;4.18;;;8.00;99.90;;;;;;4990774;28;20030;-60
2022/04/13 04:32:20;;;;;;;8.77;4.13;;;8.00;99.90;;;;;;4989463;28;20042;-60
2022/04/13 04:34:46;;;;;;;9.93;5.05;;;7.90;99.90;;;;;;4989917;28;20034;-60
2022/04/13 04:37:11;;;;;;;9.98;4.55;;;7.90;99.90;;;;;;4990878;28;20065;-60
2022/04/13 04:39:37;;;;;;;9.65;4.30;;;7.90;99.90;;;;;;4989764;28;20041;-60
2022/04/13 04:42:04;;;;;;;9.07;4.60;;;7.90;99.90;;;;;;4990812;28;20038;-60
2022/04/13 04:44:30;;;;;;;10.27;4.13;;;7.90;99.90;;;;;;4989700;28;20050;-60
2022/04/13 04:46:56;;;;;;;8.00;4.15;;;7.90;99.90;;;;;;4982891;28;20042;-60
2022/04/13 04:49:22;;;;;;;7.93;4.25;;;7.90;99.90;;;;;;4990403;28;20042;-59
2022/04/13 04:51:47;;;;;;;7.63;4.15;;;7.90;99.90;;;;;;4989773;28;20043;-60
2022/04/13 04:54:13;;;;;;;8.10;4.38;;;7.90;99.90;;;;;;4990531;28;20034;-59
2022/04/13 04:56:38;;;;;;;12.90;4.35;;;7.80;99.90;;;;;;4989439;28;20105;-60
2022/04/13 04:59:04;;;;;;;7.88;4.18;;;7.80;99.90;;;;;;4989180;28;20467;-59
2022/04/13 05:01:30;;;;;;;17.38;7.07;;;7.80;99.90;;;;;;4990380;28;20530;-60
2022/04/13 05:03:56;;;;;;;81.32;30.30;;;7.70;99.90;;;;;;4989687;28;20034;-59
2022/04/13 05:06:25;;;;;;;63.40;24.52;;;7.70;99.90;;;;;;4990504;28;20030;-59
2022/04/13 05:08:51;;;;;;;39.92;16.48;;;7.70;99.90;;;;;;4989037;28;20069;-59
2022/04/13 05:11:17;;;;;;;14.68;7.00;;;7.80;99.90;;;;;;4990120;28;20092;-59
2022/04/13 05:13:46;;;;;;;15.82;7.22;;;7.80;99.90;;;;;;4988788;28;20392;-60
2022/04/13 05:16:13;;;;;;;11.68;5.22;;;7.90;99.90;;;;;;4990362;28;20030;-60
2022/04/13 05:18:40;;;;;;;9.02;4.97;;;7.80;99.90;;;;;;4989286;28;20022;-60
2022/04/13 05:21:06;;;;;;;9.25;5.03;;;7.80;99.90;;;;;;4988763;28;20030;-60
2022/04/13 05:23:31;;;;;;;10.30;4.78;;;7.80;99.90;;;;;;4989133;28;20290;-60
2022/04/13 05:25:57;;;;;;;10.80;5.32;;;7.70;99.90;;;;;;4989651;28;20490;-59
2022/04/13 05:28:23;;;;;;;10.38;5.15;;;7.70;99.90;;;;;;4989814;28;20445;-59
2022/04/13 05:30:49;;;;;;;8.38;4.72;;;7.80;99.90;;;;;;4988742;28;20042;-59
2022/04/13 05:33:14;;;;;;;13.93;5.50;;;7.90;99.90;;;;;;4988502;28;20388;-60
2022/04/13 05:35:40;;;;;;;11.25;5.80;;;8.00;99.90;;;;;;4988873;28;20026;-60
2022/04/13 05:38:06;;;;;;;13.80;6.38;;;8.10;99.90;;;;;;4989731;28;20801;-60
2022/04/13 05:40:32;;;;;;;9.45;5.53;;;8.20;99.90;;;;;;4988993;28;20089;-60
2022/04/13 05:42:58;;;;;;;11.10;6.00;;;8.20;99.90;;;;;;4988851;28;20092;-60
2022/04/13 05:45:24;;;;;;;8.95;5.30;;;8.30;99.90;;;;;;4989999;28;20054;-60
2022/04/13 05:47:50;;;;;;;8.40;4.80;;;8.40;99.90;;;;;;4987387;28;20507;-60
2022/04/13 05:50:16;;;;;;;9.10;5.15;;;8.40;99.90;;;;;;4982794;28;20031;-60
2022/04/13 05:52:44;;;;;;;9.35;5.18;;;8.30;99.90;;;;;;4988772;28;20045;-60
2022/04/13 05:55:11;;;;;;;10.52;5.35;;;8.30;99.90;;;;;;4989382;28;20117;-60
2022/04/13 05:57:37;;;;;;;13.38;5.07;;;8.40;99.90;;;;;;4987560;28;20069;-60
2022/04/13 06:00:05;;;;;;;8.73;5.20;;;8.40;99.90;;;;;;4989469;28;20065;-60
2022/04/13 06:02:31;;;;;;;16.63;7.72;;;8.40;99.90;;;;;;4975491;28;20030;-60
2022/04/13 06:04:58;;;;;;;12.52;7.28;;;8.60;99.90;;;;;;4987012;28;20056;-61
2022/04/13 06:07:24;;;;;;;15.43;7.20;;;8.70;99.90;;;;;;4989344;28;20034;-60
2022/04/13 06:09:49;;;;;;;12.68;7.13;;;8.80;99.90;;;;;;4987442;28;20095;-60
2022/04/13 06:12:22;;;;;;;12.13;6.68;;;8.90;99.90;;;;;;4989732;28;20395;-60
2022/04/13 06:14:48;;;;;;;42.50;23.15;;;9.10;99.90;;;;;;4989085;28;20035;-60
2022/04/13 06:17:14;;;;;;;21.27;12.40;;;9.30;99.90;;;;;;4988988;28;20037;-61
2022/04/13 06:19:39;;;;;;;14.05;6.60;;;9.40;99.90;;;;;;4984937;28;20463;-61
2022/04/13 06:22:05;;;;;;;10.68;6.32;;;9.50;99.90;;;;;;4989461;28;20030;-60
2022/04/13 06:24:31;;;;;;;15.32;5.20;;;9.70;99.90;;;;;;4989080;28;20533;-60
2022/04/13 06:26:57;;;;;;;9.75;4.85;;;9.60;99.90;;;;;;4988396;28;20439;-60
2022/04/13 06:29:23;;;;;;;11.40;5.40;;;9.60;99.90;;;;;;4989166;28;20065;-60
2022/04/13 06:31:48;;;;;;;12.13;5.47;;;9.70;99.90;;;;;;4988279;28;20109;-60
2022/04/13 06:34:16;;;;;;;9.63;4.85;;;9.80;99.90;;;;;;4989025;28;20444;-60
2022/04/13 06:36:42;;;;;;;9.57;5.30;;;10.00;99.90;;;;;;4988544;28;20122;-60
2022/04/13 06:39:07;;;;;;;10.60;5.18;;;10.20;99.90;;;;;;4987876;28;20042;-61
2022/04/13 06:41:33;;;;;;;9.85;5.35;;;10.30;99.90;;;;;;4979645;28;20388;-61
2022/04/13 06:43:59;;;;;;;27.33;14.20;;;10.40;99.90;;;;;;4986667;28;20507;-61
2022/04/13 06:46:25;;;;;;;33.42;16.23;;;10.60;99.90;;;;;;4988655;28;20038;-60
2022/04/13 06:48:51;;;;;;;18.45;9.73;;;10.80;99.90;;;;;;4988356;28;20081;-61
2022/04/13 06:51:17;;;;;;;26.00;13.57;;;11.00;99.90;;;;;;4989270;28;20042;-60
2022/04/13 06:53:43;;;;;;;14.05;6.82;;;11.10;99.90;;;;;;4989582;28;20026;-61
2022/04/13 06:56:08;;;;;;;11.32;6.05;;;11.20;99.90;;;;;;4992843;28;20041;-61
2022/04/13 06:58:34;;;;;;;12.80;6.55;;;11.40;99.90;;;;;;4992603;28;20034;-61
2022/04/13 07:01:00;;;;;;;14.57;6.15;;;11.60;99.90;;;;;;4992386;28;20375;-61
2022/04/13 07:03:26;;;;;;;15.70;7.00;;;11.80;99.90;;;;;;4985120;28;20030;-61
2022/04/13 07:05:52;;;;;;;19.75;11.20;;;12.00;99.90;;;;;;4991539;28;20076;-61
2022/04/13 07:08:18;;;;;;;34.10;20.00;;;12.30;99.90;;;;;;4992673;28;20093;-61
2022/04/13 07:10:44;;;;;;;14.00;7.65;;;12.60;99.90;;;;;;4991668;28;20046;-61
2022/04/13 07:13:14;;;;;;;28.83;15.00;;;12.80;99.90;;;;;;4991889;28;20034;-61
2022/04/13 07:15:40;;;;;;;23.50;10.18;;;12.90;99.90;;;;;;4991539;28;20447;-61
2022/04/13 07:18:06;;;;;;;13.25;6.88;;;13.10;99.90;;;;;;4992788;28;20066;-61
2022/04/13 07:20:32;;;;;;;11.45;5.22;;;13.40;99.90;;;;;;4992369;28;20054;-61
2022/04/13 07:22:58;;;;;;;8.40;4.30;;;13.60;99.90;;;;;;4991599;28;20054;-61
2022/04/13 07:25:24;;;;;;;7.28;3.90;;;13.70;99.90;;;;;;4992465;28;20442;-61
2022/04/13 07:27:50;;;;;;;10.93;5.05;;;13.90;99.90;;;;;;4991115;28;20510;-61
2022/04/13 07:30:16;;;;;;;10.77;4.40;;;14.00;99.90;;;;;;4992282;28;20058;-61
2022/04/13 07:32:46;;;;;;;10.55;4.90;;;14.20;99.90;;;;;;4990401;28;20038;-61
2022/04/13 07:35:16;;;;;;;10.73;5.53;;;14.30;99.90;;;;;;4992462;28;20069;-61
2022/04/13 07:37:43;;;;;;;10.63;5.10;;;14.50;99.90;;;;;;4991535;28;20685;-62
2022/04/13 07:40:11;;;;;;;12.05;4.80;;;14.80;99.90;;;;;;4992583;28;20281;-61
2022/04/13 07:42:37;;;;;;;9.90;5.20;;;15.00;99.90;;;;;;4991640;28;20174;-61
2022/04/13 07:45:04;;;;;;;11.05;4.57;;;15.10;99.90;;;;;;4991375;28;20077;-61
2022/04/13 07:47:30;;;;;;;12.65;4.43;;;15.30;99.90;;;;;;4992091;28;20034;-61
2022/04/13 07:49:56;;;;;;;14.38;4.50;;;15.40;99.90;;;;;;4990698;28;20085;-61
2022/04/13 07:52:22;;;;;;;14.45;5.20;;;15.60;99.90;;;;;;4991892;28;20391;-61
2022/04/13 07:54:48;;;;;;;10.15;5.03;;;15.70;99.90;;;;;;4990765;28;20030;-61
2022/04/13 07:57:15;;;;;;;15.88;4.85;;;15.90;99.90;;;;;;4991567;28;20490;-61
2022/04/13 07:59:41;;;;;;;8.55;3.97;;;16.00;99.90;;;;;;4984016;28;20491;-62
2022/04/13 08:02:07;;;;;;;12.25;5.05;;;16.10;99.90;;;;;;4990533;28;20661;-61
2022/04/13 08:04:37;;;;;;;13.65;4.22;;;16.30;99.90;;;;;;4989967;28;20026;-61
2022/04/13 08:07:03;;;;;;;10.40;4.60;;;16.40;99.90;;;;;;4990757;28;20033;-61
2022/04/13 08:09:29;;;;;;;10.20;5.05;;;16.50;99.90;;;;;;4991431;28;20034;-61
2022/04/13 08:11:54;;;;;;;8.48;4.15;;;16.70;99.50;;;;;;4991011;28;20096;-61
2022/04/13 08:14:21;;;;;;;11.23;4.70;;;16.90;98.30;;;;;;4991689;28;20030;-61
2022/04/13 08:16:46;;;;;;;12.25;5.05;;;17.10;98.40;;;;;;4984002;28;20037;-61
2022/04/13 08:19:12;;;;;;;10.05;4.35;;;17.20;97.40;;;;;;4991286;28;20340;-61
2022/04/13 08:21:38;;;;;;;11.02;4.10;;;17.40;96.40;;;;;;4989602;28;20034;-61
2022/04/13 08:24:07;;;;;;;10.82;4.80;;;17.60;94.50;;;;;;4990477;28;20042;-61
2022/04/13 08:26:33;;;;;;;10.80;4.63;;;17.80;95.20;;;;;;4989819;28;20364;-61
2022/04/13 08:28:59;;;;;;;12.38;4.85;;;17.90;91.60;;;;;;4989890;28;20041;-61
2022/04/13 08:31:24;;;;;;;10.18;4.47;;;18.00;89.40;;;;;;4991231;28;20038;-61
2022/04/13 08:33:50;;;;;;;11.90;4.57;;;18.00;88.90;;;;;;4990217;28;20414;-62
2022/04/13 08:36:17;;;;;;;9.85;4.22;;;18.10;82.30;;;;;;4991252;28;20356;-61
2022/04/13 08:38:43;;;;;;;11.68;4.43;;;18.30;84.00;;;;;;4991130;28;20034;-62
2022/04/13 08:41:19;;;;;;;11.45;4.35;;;18.40;82.00;;;;;;4990321;28;20042;-62
2022/04/13 08:43:51;;;;;;;9.35;3.90;;;18.70;79.10;;;;;;4988749;28;20564;-62
2022/04/13 08:46:24;;;;;;;9.63;4.30;;;18.80;78.40;;;;;;4991181;28;20031;-62
2022/04/13 08:48:52;;;;;;;10.43;4.68;;;18.90;84.50;;;;;;4990437;28;20051;-62
2022/04/13 08:51:21;;;;;;;11.05;4.50;;;19.10;81.80;;;;;;4983364;28;20042;-61
2022/04/13 08:53:52;;;;;;;13.77;4.72;;;19.30;75.30;;;;;;4990151;28;20033;-63
2022/04/13 08:56:19;;;;;;;13.40;4.88;;;19.30;78.80;;;;;;4982694;28;20030;-62
2022/04/13 08:59:01;;;;;;;10.02;4.55;;;19.40;81.40;;;;;;4990243;28;20081;-63
2022/04/13 09:01:38;;;;;;;10.95;5.18;;;19.60;84.60;;;;;;4990715;28;20330;-63
2022/04/13 09:04:11;;;;;;;8.63;3.85;;;19.80;74.50;;;;;;4989843;28;20650;-63
2022/04/13 09:06:40;;;;;;;8.93;4.53;;;19.90;77.70;;;;;;4989022;28;20614;-62
2022/04/13 09:09:15;;;;;;;10.82;4.78;;;20.10;78.70;;;;;;4989281;28;20044;-63
2022/04/13 09:11:44;;;;;;;12.63;4.90;;;20.20;73.70;;;;;;4990419;28;20050;-63
2022/04/13 09:14:12;;;;;;;10.73;4.82;;;20.20;69.50;;;;;;4989902;28;20061;-63
2022/04/13 09:16:42;;;;;;;11.90;4.35;;;20.40;71.50;;;;;;4989885;28;20030;-63
2022/04/13 09:19:08;;;;;;;22.15;4.85;;;20.60;71.30;;;;;;4989632;28;20045;-63
2022/04/13 09:21:34;;;;;;;8.02;4.15;;;20.80;75.60;;;;;;4989847;28;20029;-63
2022/04/13 09:24:00;;;;;;;10.82;4.53;;;21.00;68.90;;;;;;4989130;28;20172;-63
2022/04/13 09:26:28;;;;;;;9.43;4.13;;;21.00;68.50;;;;;;4982203;28;20022;-63
2022/04/13 09:28:54;;;;;;;9.55;4.57;;;21.30;68.80;;;;;;4989355;28;20038;-64
2022/04/13 09:31:20;;;;;;;8.10;4.22;;;21.50;67.10;;;;;;4989700;28;20089;-63
2022/04/13 09:33:46;;;;;;;8.90;4.30;;;21.50;63.50;;;;;;4989741;28;20034;-63
2022/04/13 09:36:11;;;;;;;9.75;4.07;;;21.60;67.00;;;;;;4989872;28;20030;-63
2022/04/13 09:38:38;;;;;;;10.38;4.20;;;21.50;61.80;;;;;;4989723;28;20117;-63
2022/04/13 09:41:09;;;;;;;9.30;3.95;;;21.50;61.50;;;;;;4988442;28;20088;-63
2022/04/13 09:43:36;;;;;;;9.07;4.05;;;21.70;70.30;;;;;;4988213;28;20461;-63
2022/04/13 09:46:03;;;;;;;8.38;3.50;;;21.70;59.60;;;;;;4987841;28;20124;-63
2022/04/13 09:48:29;;;;;;;8.90;3.58;;;21.90;59.50;;;;;;4989644;28;20125;-63
2022/04/13 09:50:59;;;;;;;8.88;4.18;;;22.20;57.60;;;;;;4988465;28;20459;-63
2022/04/13 09:53:25;;;;;;;9.95;3.67;;;22.00;55.50;;;;;;4989887;28;20041;-63
2022/04/13 09:55:55;;;;;;;7.78;3.72;;;21.90;55.10;;;;;;4988882;28;20026;-62
2022/04/13 09:58:22;;;;;;;;;;;22.10;57.20;;;;;;4990152;28;20038;-63
2022/04/13 10:00:50;;;;;;;10.98;3.75;;;22.20;56.70;;;;;;4988625;28;20406;-63
2022/04/13 10:03:18;;;;;;;7.40;3.55;;;22.10;54.60;;;;;;4989318;28;20037;-63
2022/04/13 10:05:50;;;;;;;10.70;3.45;;;22.00;57.10;;;;;;4989860;28;20026;-62
2022/04/13 10:08:22;;;;;;;9.50;3.63;;;21.90;56.60;;;;;;4987207;28;20034;-63
2022/04/13 10:10:49;;;;;;;7.75;3.28;;;21.90;58.20;;;;;;4987666;28;20116;-63
2022/04/13 10:13:46;;;;;;;6.97;4.28;;;22.10;55.70;;;;;;4989915;28;20114;-63
2022/04/13 10:16:14;;;;;;;7.00;3.60;;;22.30;58.00;;;;;;4969706;28;20057;-63
2022/04/13 10:18:57;;;;;;;6.43;2.92;;;22.50;55.60;;;;;;4989473;28;21681;-63
2022/04/13 10:21:45;;;;;;;5.75;2.80;;;22.60;56.60;;;;;;4988649;28;20034;-63
2022/04/13 10:24:25;;;;;;;3.63;2.25;;;22.70;53.70;;;;;;4988618;28;20062;-63
2022/04/13 10:27:11;;;;;;;9.10;2.65;;;22.80;56.10;;;;;;4981463;28;20026;-63
2022/04/13 10:29:39;;;;;;;5.88;2.60;;;22.60;53.80;;;;;;4992691;28;20038;-63
2022/04/13 10:32:16;;;;;;;15.63;3.03;;;22.60;54.40;;;;;;4992726;28;20093;-63
2022/04/13 10:34:46;;;;;;;5.93;2.65;;;22.70;54.10;;;;;;4993172;28;20105;-63
2022/04/13 10:37:13;;;;;;;9.23;3.07;;;22.50;53.50;;;;;;4992864;28;20030;-63
2022/04/13 10:39:41;;;;;;;4.90;2.05;;;22.60;53.70;;;;;;4993063;28;20027;-63
2022/04/13 10:42:11;;;;;;;4.70;2.17;;;22.80;51.70;;;;;;4988182;28;20266;-63
2022/04/13 10:44:38;;;;;;;;;;;23.00;52.20;;;;;;4992914;28;20058;-63
2022/04/13 10:47:06;;;;;;;5.72;2.80;;;23.00;53.80;;;;;;4987713;28;19909;-63
2022/04/13 10:49:56;;;;;;;5.43;2.97;;;23.00;53.40;;;;;;4993374;28;20030;-63
2022/04/13 10:52:52;;;;;;;5.32;2.60;;;23.10;52.30;;;;;;4985807;28;20049;-63
2022/04/13 10:55:20;;;;;;;7.15;2.60;;;23.30;52.70;;;;;;4984112;28;20177;-63
2022/04/13 10:58:33;;;;;;;4.10;2.42;;;23.30;48.80;;;;;;4992222;28;20068;-63
2022/04/13 11:01:04;;;;;;;7.25;3.03;;;23.10;52.80;;;;;;4965377;28;20117;-63
2022/04/13 11:03:35;;;;;;;5.00;2.25;;;22.80;53.60;;;;;;4992137;28;20081;-63
2022/04/13 11:06:04;;;;;;;9.38;2.50;;;22.70;50.80;;;;;;4986082;28;20121;-63
2022/04/13 11:08:44;;;;;;;5.70;2.95;;;22.80;52.80;;;;;;4991397;28;20034;-63
2022/04/13 11:11:11;;;;;;;5.13;2.40;;;23.00;54.40;;;;;;4982916;28;20045;-63
2022/04/13 11:13:36;;;;;;;5.50;2.20;;;23.40;49.80;;;;;;4992731;28;20031;-63
2022/04/13 11:16:17;;;;;;;5.45;2.42;;;23.40;48.40;;;;;;4991643;28;20125;-63
2022/04/13 11:19:05;;;;;;;5.15;2.22;;;23.50;49.00;;;;;;4991552;28;20113;-63
2022/04/13 11:21:32;;;;;;;5.55;2.85;;;23.60;49.50;;;;;;4992139;28;20030;-63
2022/04/13 11:23:58;;;;;;;6.30;2.45;;;23.70;50.90;;;;;;4990823;28;20070;-63
2022/04/13 11:26:36;;;;;;;7.75;2.60;;;23.40;49.00;;;;;;4991169;28;20039;-64
2022/04/13 11:29:21;;;;;;;6.90;3.38;;;23.40;49.10;;;;;;4991483;28;20130;-64
2022/04/13 11:32:02;;;;;;;5.22;2.67;;;23.50;50.60;;;;;;4992480;28;20041;-63
2022/04/13 11:34:29;;;;;;;4.88;2.63;;;23.90;49.20;;;;;;4992269;28;20034;-64
2022/04/13 11:37:05;;;;;;;4.68;2.10;;;23.90;49.40;;;;;;4991489;28;20029;-65
2022/04/13 11:39:49;;;;;;;4.43;2.60;;;23.90;48.70;;;;;;4991584;28;20096;-63
2022/04/13 11:42:20;;;;;;;7.72;2.85;;;23.90;46.70;;;;;;4991294;28;20038;-63
2022/04/13 11:44:47;;;;;;;3.60;2.35;;;23.70;48.20;;;;;;4991845;28;20125;-63
2022/04/13 11:47:17;;;;;;;5.70;2.60;;;23.70;48.20;;;;;;4990981;28;20026;-63
2022/04/13 11:50:00;;;;;;;11.05;3.30;;;23.80;47.50;;;;;;4991975;28;20113;-64
2022/04/13 11:52:43;;;;;;;7.88;2.83;;;23.90;47.50;;;;;;4990820;28;20038;-63
2022/04/13 11:55:28;;;;;;;7.20;2.92;;;23.90;48.50;;;;;;4991337;28;20121;-63
2022/04/13 11:58:08;;;;;;;7.00;2.58;;;23.80;47.90;;;;;;4991466;28;20026;-64
2022/04/13 12:00:52;;;;;;;7.50;2.80;;;24.20;48.80;;;;;;4991738;28;20399;-64
2022/04/13 12:03:34;;;;;;;3.38;1.98;;;24.30;45.70;;;;;;4985550;28;20479;-64
2022/04/13 12:06:00;;;;;;;5.22;1.80;;;24.30;45.60;;;;;;4990922;28;20030;-64
2022/04/13 12:08:29;;;;;;;4.47;2.10;;;24.30;44.30;;;;;;4991569;28;20105;-64
2022/04/13 12:11:00;;;;;;;5.35;1.70;;;24.50;43.70;;;;;;4989893;28;20037;-64
2022/04/13 12:13:32;;;;;;;3.42;1.70;;;24.30;41.40;;;;;;4991350;28;20109;-64
2022/04/13 12:15:59;;;;;;;3.78;1.95;;;24.10;43.00;;;;;;4987378;28;20033;-64
2022/04/13 12:18:26;;;;;;;4.20;1.48;;;24.10;42.80;;;;;;4990387;28;20093;-64
2022/04/13 12:21:13;;;;;;;4.78;1.52;;;24.00;42.30;;;;;;4991087;28;20034;-64
2022/04/13 12:23:39;;;;;;;2.85;1.52;;;24.20;41.50;;;;;;4989589;28;20042;-64
2022/04/13 12:26:07;;;;;;;3.85;1.75;;;24.30;43.60;;;;;;4990868;28;20034;-64
2022/04/13 12:28:33;;;;;;;7.72;1.90;;;24.60;43.10;;;;;;4991204;28;20045;-64
2022/04/13 12:31:03;;;;;;;6.55;2.20;;;24.70;41.90;;;;;;4990197;28;20038;-64
2022/04/13 12:33:30;;;;;;;5.35;2.55;;;24.80;43.30;;;;;;4981304;28;20026;-64
2022/04/13 12:36:00;;;;;;;7.25;3.42;;;25.10;43.60;;;;;;4990532;28;20365;-64
2022/04/13 12:38:34;;;;;;;7.13;3.15;;;25.10;43.20;;;;;;4989975;28;20023;-63
2022/04/13 12:41:15;;;;;;;7.20;3.00;;;25.00;42.90;;;;;;4990083;28;20467;-63
2022/04/13 12:44:00;;;;;;;6.25;3.08;;;25.00;43.60;;;;;;4990540;28;20085;-63
2022/04/13 12:46:30;;;;;;;7.70;2.85;;;25.10;44.90;;;;;;4983422;28;20045;-64
2022/04/13 12:49:07;;;;;;;8.98;2.80;;;25.10;42.90;;;;;;4989340;28;20054;-64
2022/04/13 12:51:34;;;;;;;5.35;2.75;;;25.20;43.80;;;;;;4983675;28;20030;-63
2022/04/13 12:54:05;;;;;;;5.28;2.83;;;25.00;43.10;;;;;;4989917;28;20483;-63